Time;durP1;ratioP1;P1;durP2;ratioP2;P2;SDS_P1;SDS_P2;PMS_P1;PMS_P2;Temp;Humidity;BMP_temperature;BMP_pressure;BME280_temperature;BME280_humidity;BME280_pressure;Samples;Min_cycle;Max_cycle;Signal;HPM_P1;HPM_P2
2022/05/31 00:01:25;;;;;;;0.82;0.82;;;10.20;99.50;;;;;;5058321;28;20025;-81
2022/05/31 00:03:51;;;;;;;0.68;0.68;;;10.20;99.50;;;;;;5046373;28;20060;-81
2022/05/31 00:06:17;;;;;;;1.00;0.90;;;10.20;99.80;;;;;;5045553;28;20029;-81
2022/05/31 00:08:43;;;;;;;0.82;0.82;;;10.20;99.90;;;;;;5044899;28;20021;-81
2022/05/31 00:11:08;;;;;;;0.75;0.75;;;10.10;99.90;;;;;;5044969;28;20044;-81
2022/05/31 00:13:34;;;;;;;0.80;0.80;;;10.10;99.90;;;;;;5061923;28;20021;-81
2022/05/31 00:16:00;;;;;;;0.73;0.52;;;10.00;99.90;;;;;;5061978;28;20033;-80
2022/05/31 00:18:26;;;;;;;0.77;0.77;;;10.00;99.90;;;;;;5045106;28;20033;-81
2022/05/31 00:20:52;;;;;;;1.20;0.73;;;10.00;99.90;;;;;;5045095;28;20532;-81
2022/05/31 00:23:20;;;;;;;0.80;0.80;;;10.00;99.90;;;;;;5062791;28;20029;-80
2022/05/31 00:25:46;;;;;;;0.70;0.70;;;10.00;99.90;;;;;;5045686;28;20025;-82
2022/05/31 00:28:12;;;;;;;0.70;0.70;;;10.00;99.90;;;;;;5064423;28;20349;-81
2022/05/31 00:30:39;;;;;;;0.70;0.70;;;10.00;99.90;;;;;;5064337;28;20020;-81
2022/05/31 00:33:06;;;;;;;0.73;0.70;;;10.00;99.90;;;;;;5052281;28;20358;-81
2022/05/31 00:35:36;;;;;;;1.55;1.00;;;10.00;99.90;;;;;;5033806;28;20125;-80
2022/05/31 00:38:02;;;;;;;0.90;0.90;;;10.00;99.90;;;;;;5050083;28;20100;-81
2022/05/31 00:40:31;;;;;;;1.42;0.85;;;10.00;99.90;;;;;;5043880;28;20100;-81
2022/05/31 00:43:00;;;;;;;0.77;0.77;;;9.90;99.90;;;;;;5052163;28;20060;-80
2022/05/31 00:45:41;;;;;;;0.52;0.52;;;9.90;99.90;;;;;;5050217;28;20028;-81
2022/05/31 00:48:13;;;;;;;0.80;0.80;;;9.90;99.90;;;;;;5042492;28;20116;-81
2022/05/31 00:50:47;;;;;;;0.77;0.60;;;9.90;99.90;;;;;;5060384;28;20052;-80
2022/05/31 00:53:34;;;;;;;0.90;0.85;;;9.90;99.90;;;;;;5044664;28;20120;-81
2022/05/31 00:56:03;;;;;;;0.80;0.80;;;9.90;99.90;;;;;;5062763;28;20028;-80
2022/05/31 00:58:40;;;;;;;0.90;0.82;;;9.90;99.90;;;;;;5062177;28;20029;-81
2022/05/31 01:01:10;;;;;;;1.02;0.90;;;9.90;99.90;;;;;;5062035;28;20052;-81
2022/05/31 01:03:38;;;;;;;0.60;0.47;;;9.80;99.90;;;;;;5045093;28;20078;-80
2022/05/31 01:06:05;;;;;;;0.63;0.63;;;9.80;99.90;;;;;;5060696;28;20064;-81
2022/05/31 01:08:32;;;;;;;0.88;0.88;;;9.70;99.90;;;;;;5024791;28;20092;-81
2022/05/31 01:10:58;;;;;;;1.10;0.95;;;9.70;99.90;;;;;;5043130;28;20510;-81
2022/05/31 01:13:23;;;;;;;1.60;0.60;;;9.70;99.90;;;;;;5042168;28;20037;-80
2022/05/31 01:15:50;;;;;;;0.50;0.50;;;9.70;99.90;;;;;;5041865;28;20421;-80
2022/05/31 01:18:16;;;;;;;0.40;0.40;;;9.70;99.90;;;;;;5042156;28;20088;-81
2022/05/31 01:20:42;;;;;;;0.40;0.40;;;9.70;99.90;;;;;;5042680;28;20030;-80
2022/05/31 01:23:13;;;;;;;0.70;0.70;;;9.70;99.90;;;;;;5042559;28;20021;-81
2022/05/31 01:25:58;;;;;;;0.57;0.57;;;9.70;99.90;;;;;;5044609;28;20099;-84
2022/05/31 01:28:33;;;;;;;0.60;0.60;;;9.70;99.90;;;;;;5041312;28;20029;-83
2022/05/31 01:31:20;;;;;;;0.47;0.47;;;9.70;99.90;;;;;;5039910;28;20381;-82
2022/05/31 01:34:11;;;;;;;0.60;0.60;;;9.70;99.90;;;;;;5046218;28;20021;-82
2022/05/31 01:36:48;;;;;;;0.50;0.50;;;9.70;99.90;;;;;;5042473;28;20422;-81
2022/05/31 01:39:37;;;;;;;1.17;0.68;;;9.70;99.90;;;;;;5033285;28;20018;-81
2022/05/31 01:42:40;;;;;;;0.63;0.63;;;9.70;99.90;;;;;;5053121;28;20084;-82
2022/05/31 01:45:26;;;;;;;0.70;0.60;;;9.80;99.90;;;;;;5046034;28;20043;-82
2022/05/31 01:47:56;;;;;;;1.17;0.50;;;9.80;99.90;;;;;;5064481;28;20029;-83
2022/05/31 01:50:22;;;;;;;0.57;0.52;;;9.80;99.90;;;;;;5065266;28;20051;-83
2022/05/31 01:52:50;;;;;;;0.60;0.60;;;9.80;99.90;;;;;;5064757;28;20021;-81
2022/05/31 01:55:16;;;;;;;0.50;0.50;;;9.80;99.90;;;;;;5065408;28;20043;-83
2022/05/31 01:57:47;;;;;;;0.70;0.60;;;9.80;99.90;;;;;;5047527;28;20028;-82
2022/05/31 02:00:17;;;;;;;0.40;0.40;;;9.70;99.90;;;;;;5049334;28;20053;-82
2022/05/31 02:02:51;;;;;;;0.70;0.70;;;9.70;99.90;;;;;;5044585;28;20089;-82
2022/05/31 02:05:18;;;;;;;0.50;0.50;;;9.70;99.90;;;;;;5045136;28;20018;-82
2022/05/31 02:07:56;;;;;;;1.05;0.60;;;9.70;99.90;;;;;;5027806;28;20376;-81
2022/05/31 02:10:21;;;;;;;0.60;0.60;;;9.70;99.90;;;;;;5044625;28;20037;-81
2022/05/31 02:12:47;;;;;;;0.82;0.82;;;9.70;99.90;;;;;;5044526;28;20084;-83
2022/05/31 02:15:13;;;;;;;0.68;0.60;;;9.70;99.80;;;;;;5039008;28;20093;-82
2022/05/31 02:17:39;;;;;;;0.68;0.68;;;9.70;99.80;;;;;;5057643;28;20029;-80
2022/05/31 02:20:05;;;;;;;0.50;0.50;;;9.70;99.80;;;;;;5063924;28;20021;-80
2022/05/31 02:22:31;;;;;;;0.43;0.43;;;9.70;99.80;;;;;;5049530;28;20021;-81
2022/05/31 02:24:56;;;;;;;0.65;0.60;;;9.70;99.80;;;;;;5064193;28;20353;-81
2022/05/31 02:27:22;;;;;;;0.52;0.47;;;9.70;99.80;;;;;;5063267;28;20033;-83
2022/05/31 02:29:48;;;;;;;0.68;0.65;;;9.60;99.90;;;;;;5062727;28;20025;-83
2022/05/31 02:32:15;;;;;;;0.47;0.47;;;9.60;99.90;;;;;;5074119;28;20112;-84
2022/05/31 02:34:49;;;;;;;0.70;0.70;;;9.60;99.90;;;;;;5073268;28;20059;-83
2022/05/31 02:37:16;;;;;;;0.77;0.60;;;9.60;99.90;;;;;;5043439;28;20060;-84
2022/05/31 02:39:42;;;;;;;0.40;0.40;;;9.60;99.80;;;;;;5060804;28;20031;-82
2022/05/31 02:42:08;;;;;;;0.73;0.40;;;9.50;99.90;;;;;;5043079;28;20024;-83
2022/05/31 02:44:34;;;;;;;0.52;0.52;;;9.50;99.90;;;;;;5059461;28;20017;-83
2022/05/31 02:47:01;;;;;;;0.40;0.40;;;9.50;99.90;;;;;;5061158;28;20024;-82
2022/05/31 02:49:27;;;;;;;0.30;0.30;;;9.50;99.90;;;;;;5066094;28;20096;-81
2022/05/31 02:51:53;;;;;;;0.50;0.50;;;9.50;99.90;;;;;;5068482;28;20025;-81
2022/05/31 02:54:20;;;;;;;0.57;0.57;;;9.60;99.90;;;;;;5066088;28;20059;-83
2022/05/31 02:56:46;;;;;;;0.60;0.60;;;9.60;99.90;;;;;;5044117;28;20025;-82
2022/05/31 02:59:13;;;;;;;0.47;0.43;;;9.60;99.90;;;;;;5060785;28;20033;-80
2022/05/31 03:01:40;;;;;;;0.40;0.40;;;9.70;99.80;;;;;;5067126;28;20047;-82
2022/05/31 03:04:07;;;;;;;0.50;0.40;;;9.70;99.50;;;;;;5067654;28;20017;-81
2022/05/31 03:06:33;;;;;;;0.40;0.40;;;9.70;99.40;;;;;;5067847;28;20036;-82
2022/05/31 03:08:59;;;;;;;0.98;0.98;;;9.70;99.30;;;;;;5058264;28;20028;-82
2022/05/31 03:11:42;;;;;;;0.63;0.45;;;9.70;99.30;;;;;;5047982;28;20108;-82
2022/05/31 03:14:10;;;;;;;;;;;9.70;99.30;;;;;;5047620;28;20025;-81
2022/05/31 03:16:40;;;;;;;0.38;0.38;;;9.80;99.30;;;;;;5030143;28;19912;-83
2022/05/31 03:19:15;;;;;;;0.45;0.45;;;9.80;99.10;;;;;;5047212;28;20205;-81
2022/05/31 03:21:47;;;;;;;0.38;0.38;;;9.90;98.80;;;;;;5028922;28;20103;-82
2022/05/31 03:24:20;;;;;;;0.50;0.47;;;9.90;98.70;;;;;;5028548;28;20036;-82
2022/05/31 03:26:48;;;;;;;0.43;0.43;;;9.90;98.60;;;;;;5058139;28;20109;-82
2022/05/31 03:29:14;;;;;;;0.60;0.60;;;10.00;98.60;;;;;;5067374;28;20025;-81
2022/05/31 03:31:40;;;;;;;0.50;0.50;;;10.00;98.60;;;;;;5067676;28;20051;-82
2022/05/31 03:34:06;;;;;;;0.52;0.52;;;9.90;98.50;;;;;;5049807;28;20037;-81
2022/05/31 03:36:32;;;;;;;0.70;0.55;;;9.90;98.60;;;;;;5067769;28;20036;-84
2022/05/31 03:38:57;;;;;;;0.57;0.57;;;9.80;98.70;;;;;;5049646;28;20045;-81
2022/05/31 03:41:23;;;;;;;0.60;0.60;;;9.80;98.90;;;;;;5076308;28;20024;-82
2022/05/31 03:43:49;;;;;;;0.50;0.43;;;9.70;99.10;;;;;;5079937;28;20080;-82
2022/05/31 03:46:15;;;;;;;0.30;0.30;;;9.70;99.20;;;;;;5077794;28;20025;-81
2022/05/31 03:48:41;;;;;;;0.65;0.50;;;9.80;99.30;;;;;;5067513;28;20028;-81
2022/05/31 03:51:09;;;;;;;0.70;0.70;;;9.80;99.30;;;;;;5049748;28;20021;-82
2022/05/31 03:53:36;;;;;;;0.80;0.70;;;9.80;99.20;;;;;;5048973;28;20021;-83
2022/05/31 03:56:04;;;;;;;0.65;0.60;;;9.70;99.30;;;;;;5066400;28;20025;-82
2022/05/31 03:58:31;;;;;;;0.60;0.60;;;9.70;99.40;;;;;;5065237;28;20370;-82
2022/05/31 04:00:57;;;;;;;1.05;0.80;;;9.80;99.40;;;;;;5047564;28;20110;-83
2022/05/31 04:03:24;;;;;;;0.60;0.60;;;9.90;99.20;;;;;;5057760;28;20358;-81
2022/05/31 04:05:50;;;;;;;0.75;0.63;;;9.90;99.00;;;;;;5064367;28;20429;-82
2022/05/31 04:08:15;;;;;;;0.77;0.65;;;9.90;99.00;;;;;;5045607;28;20028;-82
2022/05/31 04:10:43;;;;;;;0.60;0.60;;;9.90;99.10;;;;;;5063420;28;20055;-82
2022/05/31 04:13:10;;;;;;;1.55;1.10;;;9.90;99.40;;;;;;5048948;28;20029;-82
2022/05/31 04:15:36;;;;;;;1.17;1.08;;;9.90;99.60;;;;;;5066907;28;20062;-82
2022/05/31 04:18:02;;;;;;;1.15;1.00;;;9.90;99.90;;;;;;5063582;28;20061;-82
2022/05/31 04:20:28;;;;;;;0.82;0.82;;;10.00;99.90;;;;;;5051640;28;20033;-80
2022/05/31 04:25:39;;;;;;;1.20;1.10;;;10.30;99.50;;;;;;5046017;28;20053;-81
2022/05/31 04:28:05;;;;;;;2.08;1.10;;;10.40;99.20;;;;;;5042474;28;20029;-82
2022/05/31 04:30:31;;;;;;;1.50;1.02;;;10.50;99.10;;;;;;5045370;28;20029;-81
2022/05/31 04:32:56;;;;;;;1.20;1.10;;;10.60;99.00;;;;;;5042215;28;20092;-82
2022/05/31 04:35:22;;;;;;;1.35;0.90;;;10.70;98.70;;;;;;5023948;28;20052;-83
2022/05/31 04:37:47;;;;;;;2.03;1.30;;;10.80;98.40;;;;;;5024690;28;20033;-82
2022/05/31 04:40:13;;;;;;;1.23;1.13;;;10.90;98.10;;;;;;5024249;28;20024;-81
2022/05/31 04:42:39;;;;;;;1.13;1.00;;;10.80;97.80;;;;;;5042230;28;20021;-83
2022/05/31 04:45:06;;;;;;;0.98;0.98;;;10.70;98.00;;;;;;5043729;28;20025;-81
2022/05/31 04:47:32;;;;;;;0.90;0.90;;;10.80;98.30;;;;;;5027222;28;20249;-81
2022/05/31 04:49:58;;;;;;;0.90;0.90;;;11.00;98.20;;;;;;5025788;28;20029;-81
2022/05/31 04:52:25;;;;;;;1.30;0.95;;;11.00;97.60;;;;;;5026726;28;20375;-81
2022/05/31 04:54:50;;;;;;;1.38;1.00;;;11.00;97.50;;;;;;5027595;28;20384;-81
2022/05/31 04:57:16;;;;;;;1.05;0.93;;;11.20;97.50;;;;;;5026098;28;20041;-81
2022/05/31 04:59:42;;;;;;;1.00;0.88;;;11.30;97.00;;;;;;5026929;28;20061;-81
2022/05/31 05:02:09;;;;;;;1.25;1.15;;;11.40;96.80;;;;;;5050186;28;20072;-81
2022/05/31 05:04:35;;;;;;;0.88;0.88;;;11.60;96.30;;;;;;5027238;28;20044;-81
2022/05/31 05:07:00;;;;;;;1.08;1.08;;;11.70;95.80;;;;;;5043268;28;20026;-81
2022/05/31 05:09:26;;;;;;;0.75;0.75;;;11.90;95.50;;;;;;5046936;28;20029;-81
2022/05/31 05:11:52;;;;;;;0.50;0.50;;;12.40;95.10;;;;;;5054787;28;20036;-81
2022/05/31 05:14:17;;;;;;;1.40;1.00;;;13.30;94.40;;;;;;5051600;28;20033;-81
2022/05/31 05:16:43;;;;;;;4.18;1.10;;;14.10;92.10;;;;;;5070472;28;20036;-80
2022/05/31 05:19:09;;;;;;;1.25;0.80;;;15.20;88.50;;;;;;5052785;28;20025;-81
2022/05/31 05:21:35;;;;;;;1.45;1.05;;;15.50;86.30;;;;;;5067599;28;20071;-82
2022/05/31 05:24:00;;;;;;;0.80;0.80;;;17.00;82.80;;;;;;5072042;28;20009;-80
2022/05/31 05:26:26;;;;;;;0.73;0.73;;;17.80;77.70;;;;;;5058386;28;20020;-81
2022/05/31 05:31:40;;;;;;;0.45;0.45;;;21.10;67.70;;;;;;5049668;28;20044;-81
2022/05/31 05:34:06;;;;;;;0.60;0.60;;;22.50;59.90;;;;;;5046840;28;20435;-81
2022/05/31 05:36:32;;;;;;;0.70;0.70;;;23.80;55.80;;;;;;5044541;28;20021;-81
2022/05/31 05:38:58;;;;;;;0.52;0.52;;;25.30;51.50;;;;;;5058942;28;20029;-81
2022/05/31 05:41:26;;;;;;;0.77;0.77;;;26.10;49.10;;;;;;5045468;28;20423;-81
2022/05/31 05:43:52;;;;;;;1.02;0.70;;;27.60;46.40;;;;;;5063591;28;20088;-80
2022/05/31 05:46:21;;;;;;;0.70;0.70;;;28.60;44.70;;;;;;5063120;28;20077;-80
2022/05/31 05:48:47;;;;;;;0.50;0.50;;;29.50;43.10;;;;;;5063549;28;20025;-81
2022/05/31 05:51:16;;;;;;;0.57;0.57;;;30.00;41.40;;;;;;5064923;28;20539;-81
2022/05/31 05:53:41;;;;;;;0.75;0.70;;;30.20;40.80;;;;;;5044912;28;20051;-81
2022/05/31 05:56:08;;;;;;;0.80;0.77;;;30.10;40.00;;;;;;5063101;28;20025;-82
2022/05/31 06:01:35;;;;;;;0.80;0.77;;;28.70;41.00;;;;;;5027238;28;20060;-78
2022/05/31 06:04:01;;;;;;;;;;;29.60;40.80;;;;;;5000387;28;20034;-79
2022/05/31 06:06:31;;;;;;;0.85;0.75;;;30.50;39.80;;;;;;5020250;28;20006;-79
2022/05/31 06:09:09;;;;;;;2.15;0.80;;;31.40;38.90;;;;;;5020095;28;20358;-79
2022/05/31 06:11:40;;;;;;;1.40;1.00;;;31.10;38.00;;;;;;5038773;28;20098;-79
2022/05/31 06:14:16;;;;;;;5.03;0.80;;;29.40;37.90;;;;;;5038976;28;20025;-77
2022/05/31 06:16:47;;;;;;;2.33;0.70;;;28.20;40.60;;;;;;5047800;28;20490;-79
2022/05/31 06:19:31;;;;;;;1.10;1.00;;;29.20;41.10;;;;;;5057800;28;20017;-80
2022/05/31 06:21:58;;;;;;;0.90;0.90;;;29.50;38.80;;;;;;5054823;28;20079;-79
2022/05/31 06:24:27;;;;;;;1.95;0.90;;;28.10;40.30;;;;;;5040709;28;20022;-79
2022/05/31 06:26:52;;;;;;;3.03;0.77;;;25.80;41.10;;;;;;5038756;28;20033;-79
2022/05/31 06:29:18;;;;;;;3.22;0.73;;;23.00;45.20;;;;;;5044402;28;20645;-77
2022/05/31 06:31:44;;;;;;;1.35;0.73;;;21.70;51.00;;;;;;5036764;28;20029;-78
2022/05/31 06:34:10;;;;;;;0.40;0.40;;;24.30;49.00;;;;;;5017247;28;20022;-78
2022/05/31 06:36:35;;;;;;;0.70;0.70;;;26.80;44.90;;;;;;5038066;28;20032;-78
2022/05/31 06:39:01;;;;;;;0.98;0.77;;;27.50;42.60;;;;;;5042335;28;20061;-79
2022/05/31 06:41:27;;;;;;;1.63;0.82;;;28.70;41.60;;;;;;5038152;28;20052;-80
2022/05/31 06:43:53;;;;;;;0.60;0.60;;;28.90;40.60;;;;;;5036791;28;20470;-79
2022/05/31 06:46:19;;;;;;;0.95;0.90;;;29.70;39.80;;;;;;5036635;28;20017;-77
2022/05/31 06:48:45;;;;;;;0.80;0.70;;;29.80;39.10;;;;;;5018800;28;20025;-78
2022/05/31 06:51:13;;;;;;;0.60;0.60;;;30.30;39.30;;;;;;5036477;28;20033;-78
2022/05/31 06:59:08;;;;;;;2.33;0.82;;;31.40;37.70;;;;;;5042550;28;20040;-80
2022/05/31 07:01:37;;;;;;;0.70;0.70;;;30.80;37.80;;;;;;5039294;28;20128;-78
2022/05/31 07:04:04;;;;;;;0.80;0.80;;;30.60;37.50;;;;;;5039728;28;20022;-79
2022/05/31 07:06:33;;;;;;;1.25;0.75;;;31.00;37.40;;;;;;5048845;28;20040;-80
2022/05/31 07:08:59;;;;;;;1.25;0.70;;;31.00;37.00;;;;;;5053731;28;20486;-80
2022/05/31 07:11:26;;;;;;;0.90;0.65;;;29.60;38.20;;;;;;5060473;28;20021;-79
2022/05/31 07:13:52;;;;;;;0.60;0.60;;;28.80;39.20;;;;;;5059089;28;20029;-79
2022/05/31 07:16:18;;;;;;;1.00;0.90;;;27.00;40.20;;;;;;5043190;28;20029;-77
2022/05/31 07:18:44;;;;;;;1.15;0.70;;;24.60;42.70;;;;;;5041406;28;20033;-79
2022/05/31 07:21:09;;;;;;;0.90;0.90;;;22.50;46.50;;;;;;5041260;28;20026;-79
2022/05/31 07:23:35;;;;;;;1.27;0.93;;;21.00;49.40;;;;;;5040049;28;20024;-77
2022/05/31 07:26:04;;;;;;;0.63;0.60;;;20.30;51.90;;;;;;5038615;28;20021;-78
2022/05/31 07:28:31;;;;;;;1.42;1.05;;;20.00;52.60;;;;;;5036661;28;20069;-79
2022/05/31 07:30:57;;;;;;;1.55;1.05;;;19.60;54.20;;;;;;5017791;28;20406;-78
2022/05/31 07:33:23;;;;;;;1.95;1.02;;;19.30;55.30;;;;;;5016816;28;20021;-79
2022/05/31 07:35:49;;;;;;;0.95;0.90;;;18.80;55.70;;;;;;5019725;28;20545;-78
2022/05/31 07:38:23;;;;;;;0.93;0.77;;;18.30;57.30;;;;;;5045153;28;20438;-78
2022/05/31 07:40:49;;;;;;;3.22;1.13;;;17.70;58.90;;;;;;5054662;28;20023;-78
2022/05/31 07:43:15;;;;;;;8.23;1.50;;;17.20;60.50;;;;;;5053683;28;20096;-78
2022/05/31 07:45:41;;;;;;;2.63;1.45;;;17.00;61.80;;;;;;5055254;28;20460;-79
2022/05/31 07:48:07;;;;;;;0.98;0.70;;;16.80;62.10;;;;;;5058245;28;20029;-79
2022/05/31 07:50:34;;;;;;;5.28;1.10;;;16.80;62.30;;;;;;5048788;28;20025;-79
2022/05/31 07:53:01;;;;;;;1.25;0.82;;;16.70;63.00;;;;;;5050293;28;20041;-78
2022/05/31 07:55:31;;;;;;;2.97;0.90;;;16.70;62.70;;;;;;5042975;28;20041;-77
2022/05/31 08:00:41;;;;;;;1.73;0.60;;;16.80;62.40;;;;;;5039920;28;20067;-78
2022/05/31 08:03:08;;;;;;;1.52;0.85;;;16.90;61.40;;;;;;5043004;28;20461;-77
2022/05/31 08:05:38;;;;;;;0.75;0.60;;;17.00;60.40;;;;;;5042295;28;20053;-78
2022/05/31 08:08:05;;;;;;;2.05;0.80;;;17.10;59.90;;;;;;5034856;28;20052;-79
2022/05/31 08:10:31;;;;;;;1.73;0.90;;;17.20;59.80;;;;;;5026455;28;20029;-79
2022/05/31 08:12:56;;;;;;;0.95;0.50;;;17.30;59.70;;;;;;5026083;28;20100;-79
2022/05/31 08:15:22;;;;;;;1.15;0.60;;;17.30;59.80;;;;;;5044825;28;20044;-78
2022/05/31 08:17:48;;;;;;;0.65;0.57;;;17.40;59.80;;;;;;5046541;28;20501;-79
2022/05/31 08:20:16;;;;;;;1.17;0.70;;;17.50;59.30;;;;;;5044154;28;20025;-80
2022/05/31 08:22:43;;;;;;;1.15;0.80;;;17.70;58.80;;;;;;5051159;28;20049;-80
2022/05/31 08:25:10;;;;;;;1.40;0.95;;;17.90;58.10;;;;;;5051055;28;20184;-77
2022/05/31 08:27:36;;;;;;;6.22;1.10;;;17.90;57.50;;;;;;5054789;28;20053;-79
2022/05/31 08:30:03;;;;;;;0.90;0.60;;;18.10;57.50;;;;;;5047470;28;20085;-79
2022/05/31 08:32:30;;;;;;;1.98;0.90;;;18.20;57.40;;;;;;5040289;28;20359;-78
2022/05/31 08:34:56;;;;;;;0.80;0.60;;;18.30;56.90;;;;;;5035817;28;20029;-78
2022/05/31 08:37:21;;;;;;;0.98;0.60;;;18.40;57.30;;;;;;5043852;28;20501;-78
2022/05/31 08:39:47;;;;;;;1.70;0.77;;;18.40;57.50;;;;;;5060020;28;20040;-78
2022/05/31 08:42:22;;;;;;;1.17;0.70;;;18.50;57.10;;;;;;5040811;28;20481;-79
2022/05/31 08:45:04;;;;;;;1.63;0.70;;;18.70;57.00;;;;;;5039366;28;20021;-78
2022/05/31 08:47:36;;;;;;;2.30;0.57;;;18.80;56.80;;;;;;5037837;28;20059;-79
2022/05/31 08:53:03;;;;;;;1.35;0.80;;;18.90;56.00;;;;;;5036402;28;20036;-78
2022/05/31 08:58:30;;;;;;;0.75;0.73;;;19.10;55.10;;;;;;5035882;28;20131;-78
2022/05/31 09:00:58;;;;;;;1.65;0.70;;;19.20;54.60;;;;;;5037951;28;20113;-78
2022/05/31 09:03:42;;;;;;;3.88;0.80;;;19.30;54.60;;;;;;5036436;28;20064;-78
2022/05/31 09:06:14;;;;;;;0.60;0.60;;;19.40;52.80;;;;;;5042401;28;20366;-78
2022/05/31 09:09:03;;;;;;;5.68;0.90;;;19.60;53.20;;;;;;5056174;28;20074;-77
2022/05/31 09:11:41;;;;;;;1.75;0.80;;;19.60;53.90;;;;;;5057355;28;20021;-78
2022/05/31 09:14:13;;;;;;;1.60;1.17;;;19.70;54.40;;;;;;5055681;28;20029;-80
2022/05/31 09:16:53;;;;;;;0.85;0.85;;;20.00;54.10;;;;;;5058547;28;20112;-79
2022/05/31 09:19:29;;;;;;;0.70;0.70;;;20.20;53.30;;;;;;5025923;28;20099;-79
2022/05/31 09:21:55;;;;;;;1.77;0.77;;;20.40;52.80;;;;;;5035259;28;20026;-78
2022/05/31 09:24:21;;;;;;;2.15;0.80;;;20.50;51.80;;;;;;5017590;28;20040;-78
2022/05/31 09:27:08;;;;;;;1.63;0.77;;;20.40;51.90;;;;;;5035868;28;20040;-77
2022/05/31 09:29:52;;;;;;;0.55;0.55;;;20.50;51.00;;;;;;5037408;28;20490;-79
2022/05/31 09:32:57;;;;;;;3.13;0.88;;;20.40;51.10;;;;;;5037776;28;20017;-79
2022/05/31 09:35:43;;;;;;;1.10;0.88;;;20.60;50.90;;;;;;5039916;28;20085;-79
2022/05/31 09:38:41;;;;;;;0.98;0.65;;;20.90;50.30;;;;;;5048044;28;20120;-79
2022/05/31 09:41:28;;;;;;;1.58;0.80;;;21.20;49.70;;;;;;5058751;28;20449;-79
2022/05/31 09:44:19;;;;;;;0.93;0.80;;;21.20;49.60;;;;;;5060905;28;20032;-80
2022/05/31 09:47:02;;;;;;;0.73;0.65;;;21.20;49.60;;;;;;5065891;28;20099;-80
2022/05/31 09:49:39;;;;;;;0.85;0.85;;;21.30;49.40;;;;;;5048418;28;20033;-79
2022/05/31 09:52:12;;;;;;;1.42;0.60;;;21.30;49.10;;;;;;5065674;28;20025;-78
2022/05/31 09:58:23;;;;;;;0.68;0.65;;;21.80;47.40;;;;;;5040347;28;20048;-79
2022/05/31 10:01:04;;;;;;;3.35;1.45;;;21.90;47.20;;;;;;5019510;28;20025;-78
2022/05/31 10:03:44;;;;;;;1.17;0.80;;;22.10;47.80;;;;;;5036413;28;20022;-78
2022/05/31 10:06:19;;;;;;;1.58;1.10;;;22.30;47.60;;;;;;5040421;28;20382;-78
2022/05/31 10:08:47;;;;;;;1.42;0.68;;;22.20;47.20;;;;;;5047071;28;20103;-78
2022/05/31 10:11:15;;;;;;;1.15;1.05;;;22.30;46.90;;;;;;5037854;28;20478;-77
2022/05/31 10:13:59;;;;;;;0.82;0.80;;;22.30;46.80;;;;;;5037851;28;20039;-77
2022/05/31 10:16:27;;;;;;;0.90;0.80;;;22.20;47.30;;;;;;5037175;28;20593;-79
2022/05/31 10:18:58;;;;;;;0.80;0.80;;;22.40;47.30;;;;;;5038360;28;20034;-77
2022/05/31 10:21:35;;;;;;;0.63;0.63;;;22.70;47.20;;;;;;5039889;28;20036;-79
2022/05/31 10:24:21;;;;;;;0.95;0.70;;;22.90;47.00;;;;;;5037754;28;20025;-79
2022/05/31 10:27:05;;;;;;;0.70;0.68;;;23.30;46.50;;;;;;5036628;28;20022;-80
2022/05/31 10:29:59;;;;;;;0.73;0.68;;;23.60;46.00;;;;;;5036043;28;20075;-78
2022/05/31 10:32:32;;;;;;;1.27;0.80;;;23.70;45.70;;;;;;5036519;28;20018;-79
2022/05/31 10:35:17;;;;;;;1.27;0.80;;;23.80;45.80;;;;;;5039341;28;20505;-80
2022/05/31 10:38:10;;;;;;;0.82;0.75;;;23.80;46.10;;;;;;5050154;28;20087;-78
2022/05/31 10:40:53;;;;;;;2.45;0.90;;;24.00;45.40;;;;;;5039246;28;20052;-79
2022/05/31 10:43:31;;;;;;;0.70;0.70;;;24.00;45.30;;;;;;5059851;28;20048;-79
2022/05/31 10:45:57;;;;;;;0.82;0.70;;;24.00;45.30;;;;;;5056909;28;20025;-77
2022/05/31 10:48:25;;;;;;;3.03;0.90;;;23.90;45.10;;;;;;5037231;28;20048;-79
2022/05/31 10:51:07;;;;;;;1.10;0.80;;;23.80;45.90;;;;;;5036766;28;20018;-78
2022/05/31 10:53:54;;;;;;;;;;;24.00;46.00;;;;;;5036788;28;20478;-79
2022/05/31 10:56:28;;;;;;;1.48;0.80;;;24.40;45.40;;;;;;5037191;28;19915;-76
2022/05/31 10:59:00;;;;;;;2.35;1.10;;;24.80;44.00;;;;;;5018210;28;20056;-79
2022/05/31 11:02:07;;;;;;;0.73;0.70;;;24.90;43.00;;;;;;5019261;28;20487;-78
2022/05/31 11:04:45;;;;;;;0.80;0.80;;;25.20;43.10;;;;;;5035738;28;20033;-77
2022/05/31 11:07:37;;;;;;;0.60;0.60;;;25.50;42.60;;;;;;5039099;28;20382;-77
2022/05/31 11:14:01;;;;;;;0.60;0.60;;;26.20;42.40;;;;;;4954818;29;20078;-79
2022/05/31 11:16:51;;;;;;;1.38;1.00;;;26.80;41.80;;;;;;4957639;29;20057;-79
2022/05/31 11:19:37;;;;;;;0.73;0.73;;;27.00;41.80;;;;;;5016973;28;20061;-78
2022/05/31 11:22:15;;;;;;;1.85;1.15;;;27.00;41.20;;;;;;5040868;28;20056;-79
2022/05/31 11:24:52;;;;;;;1.65;0.98;;;26.80;40.90;;;;;;5027437;28;20378;-79
2022/05/31 11:27:41;;;;;;;4.10;1.30;;;27.00;41.40;;;;;;5040010;28;20028;-80
2022/05/31 11:30:25;;;;;;;4.15;1.13;;;27.50;40.50;;;;;;5056484;28;20029;-80
2022/05/31 11:33:09;;;;;;;1.20;1.05;;;27.20;40.80;;;;;;5044705;28;20030;-80
2022/05/31 11:35:46;;;;;;;1.60;0.93;;;26.90;41.30;;;;;;5032762;28;20033;-80
2022/05/31 11:38:34;;;;;;;2.70;1.05;;;26.90;38.70;;;;;;5060765;28;20044;-78
2022/05/31 11:41:20;;;;;;;1.52;0.88;;;27.30;39.00;;;;;;5027421;28;20236;-78
2022/05/31 11:44:23;;;;;;;0.80;0.80;;;27.70;38.50;;;;;;5043965;28;20013;-79
2022/05/31 11:47:02;;;;;;;1.33;1.15;;;28.00;37.70;;;;;;5051081;28;20022;-80
2022/05/31 11:49:43;;;;;;;1.23;1.10;;;27.80;38.00;;;;;;5047714;28;20108;-77
2022/05/31 11:52:37;;;;;;;2.72;1.20;;;27.40;37.70;;;;;;5046989;28;20026;-79
2022/05/31 11:55:26;;;;;;;4.10;1.10;;;26.80;38.60;;;;;;5057095;28;20101;-79
2022/05/31 11:58:17;;;;;;;2.00;1.58;;;26.30;39.60;;;;;;5036354;28;20045;-81
2022/05/31 12:00:55;;;;;;;3.63;1.40;;;26.00;40.20;;;;;;5081063;22;20049;-80
2022/05/31 12:03:34;;;;;;;1.90;1.30;;;25.80;41.00;;;;;;5064337;28;20115;-81
2022/05/31 12:06:06;;;;;;;1.70;1.05;;;26.10;40.70;;;;;;5079000;28;20088;-80
2022/05/31 12:08:44;;;;;;;;;;;26.70;40.20;;;;;;5079459;28;20032;-80
2022/05/31 12:11:27;;;;;;;3.53;1.05;;;27.20;39.60;;;;;;5094410;28;19904;-78
2022/05/31 12:13:53;;;;;;;5.95;1.20;;;27.40;38.50;;;;;;5072776;28;20024;-81
2022/05/31 12:16:21;;;;;;;1.85;1.50;;;27.50;38.90;;;;;;5070137;28;20017;-79
2022/05/31 12:18:58;;;;;;;2.08;1.50;;;27.60;39.30;;;;;;5052941;28;20021;-80
2022/05/31 12:22:05;;;;;;;2.90;1.00;;;27.70;39.20;;;;;;5067499;28;20032;-81
2022/05/31 12:24:38;;;;;;;1.88;1.27;;;27.70;38.50;;;;;;5053224;28;20392;-81
2022/05/31 12:27:43;;;;;;;2.70;1.10;;;27.50;38.40;;;;;;5063674;28;20021;-82
2022/05/31 12:30:23;;;;;;;1.58;1.00;;;27.20;38.20;;;;;;4996887;28;20040;-81
2022/05/31 12:32:53;;;;;;;1.08;0.88;;;26.60;39.10;;;;;;5060476;28;20021;-81
2022/05/31 12:35:30;;;;;;;1.38;1.00;;;26.30;39.90;;;;;;5066293;28;20029;-80
2022/05/31 12:38:02;;;;;;;2.90;1.00;;;26.00;40.20;;;;;;5082618;28;20119;-81
2022/05/31 12:40:34;;;;;;;3.30;1.10;;;25.80;40.30;;;;;;5066026;28;20028;-80
2022/05/31 12:43:43;;;;;;;2.30;1.00;;;25.60;41.60;;;;;;5067590;28;20025;-81
2022/05/31 12:46:45;;;;;;;1.08;0.98;;;25.70;41.00;;;;;;5086406;28;20520;-80
2022/05/31 12:49:17;;;;;;;2.63;1.10;;;26.00;40.70;;;;;;5045207;28;20044;-81
2022/05/31 12:55:01;;;;;;;3.10;1.40;;;26.00;39.60;;;;;;5050839;28;20468;-81
2022/05/31 13:00:38;;;;;;;2.00;1.40;;;25.90;41.00;;;;;;5067176;28;20040;-79
2022/05/31 13:03:26;;;;;;;2.90;1.45;;;25.50;42.50;;;;;;5073067;28;20024;-79
2022/05/31 13:06:01;;;;;;;3.42;0.90;;;25.30;42.40;;;;;;5048460;28;20141;-80
2022/05/31 13:08:48;;;;;;;3.90;1.08;;;24.80;43.20;;;;;;5066952;28;20029;-79
2022/05/31 13:19:57;;;;;;;2.67;1.20;;;25.20;42.50;;;;;;5069009;28;20079;-80
2022/05/31 13:22:23;;;;;;;3.45;1.17;;;25.20;42.80;;;;;;5069963;28;20040;-79
2022/05/31 13:25:02;;;;;;;3.55;1.27;;;25.20;42.10;;;;;;5068642;28;20084;-78
2022/05/31 13:27:30;;;;;;;3.58;0.98;;;25.20;42.50;;;;;;5069170;28;20017;-82
2022/05/31 13:30:13;;;;;;;2.42;1.40;;;25.10;42.00;;;;;;5068281;28;20096;-78
2022/05/31 13:32:39;;;;;;;2.10;0.95;;;25.10;42.90;;;;;;5078664;28;20056;-78
2022/05/31 13:35:12;;;;;;;3.65;1.40;;;25.40;42.90;;;;;;5088031;28;20032;-80
2022/05/31 13:37:56;;;;;;;3.22;1.25;;;25.90;41.40;;;;;;5090629;28;20047;-80
2022/05/31 13:40:26;;;;;;;5.30;1.13;;;26.00;40.80;;;;;;5069437;28;20029;-80
2022/05/31 13:42:53;;;;;;;2.05;1.38;;;25.90;40.50;;;;;;5056472;28;20032;-81
2022/05/31 13:45:23;;;;;;;2.60;1.25;;;25.50;40.40;;;;;;5067835;28;20066;-79
2022/05/31 13:47:58;;;;;;;2.22;1.20;;;25.10;40.70;;;;;;5067188;28;20029;-80
2022/05/31 13:50:33;;;;;;;2.67;1.23;;;24.80;41.20;;;;;;5066204;28;20024;-79
2022/05/31 13:53:07;;;;;;;1.63;1.10;;;24.60;41.40;;;;;;5067945;28;20012;-79
2022/05/31 13:55:34;;;;;;;2.35;0.90;;;24.30;42.70;;;;;;5049184;28;20029;-79
2022/05/31 13:58:00;;;;;;;1.30;0.80;;;24.00;43.80;;;;;;5067047;28;20021;-79
2022/05/31 14:00:41;;;;;;;3.75;1.70;;;23.40;44.90;;;;;;5068008;28;20544;-79